Time;durP1;ratioP1;P1;durP2;ratioP2;P2;SDS_P1;SDS_P2;PMS_P1;PMS_P2;Temp;Humidity;BMP_temperature;BMP_pressure;BME280_temperature;BME280_humidity;BME280_pressure;Samples;Min_cycle;Max_cycle;Signal;HPM_P1;HPM_P2
2022/06/04 00:00:47;;;;;;;2.20;2.10;;;;;;;;;;4942086;28;20225;-58
2022/06/04 00:03:35;;;;;;;2.60;2.47;;;;;;;;;;4946211;28;20215;-57
2022/06/04 00:06:22;;;;;;;2.10;2.00;;;;;;;;;;4946195;28;20215;-58
2022/06/04 00:09:10;;;;;;;2.10;2.00;;;;;;;;;;4942179;28;20214;-57
2022/06/04 00:18:07;;;;;;;2.30;2.10;;;;;;;;;;4940275;29;20216;-56
2022/06/04 00:20:56;;;;;;;2.40;2.30;;;;;;;;;;4948645;28;20208;-57
2022/06/04 00:23:43;;;;;;;2.63;2.43;;;;;;;;;;4939610;28;20219;-57
2022/06/04 00:26:30;;;;;;;2.40;2.30;;;;;;;;;;4943742;29;20224;-58
2022/06/04 00:29:18;;;;;;;2.23;2.13;;;;;;;;;;4941713;28;20209;-58
2022/06/04 00:32:06;;;;;;;2.10;2.00;;;;;;;;;;4944119;29;20220;-57
2022/06/04 00:34:53;;;;;;;2.30;2.20;;;;;;;;;;4939424;28;20226;-57
2022/06/04 00:37:42;;;;;;;2.30;2.20;;;;;;;;;;4943840;29;20210;-57
2022/06/04 00:40:35;;;;;;;2.27;2.17;;;;;;;;;;4941652;28;20253;-57
2022/06/04 00:43:23;;;;;;;2.20;2.10;;;;;;;;;;4946843;28;20213;-57
2022/06/04 00:46:48;;;;;;;2.40;2.30;;;;;;;;;;4948774;28;20228;-57
2022/06/04 00:49:35;;;;;;;2.27;2.17;;;;;;;;;;4938719;29;20217;-56
2022/06/04 00:52:23;;;;;;;2.17;2.07;;;;;;;;;;4943956;28;20205;-58
2022/06/04 00:55:12;;;;;;;2.53;2.43;;;;;;;;;;4942700;29;20318;-57
2022/06/04 00:58:18;;;;;;;2.17;2.07;;;;;;;;;;4940750;28;20213;-57
2022/06/04 01:01:16;;;;;;;2.60;2.50;;;;;;;;;;4939494;29;20721;-58
2022/06/04 01:04:13;;;;;;;2.40;2.30;;;;;;;;;;4941333;29;20212;-57
2022/06/04 01:07:12;;;;;;;2.10;2.00;;;;;;;;;;4940544;28;20217;-57
2022/06/04 01:10:23;;;;;;;2.50;2.40;;;;;;;;;;4945118;29;20225;-57
2022/06/04 01:13:27;;;;;;;2.33;2.20;;;;;;;;;;4938220;29;20246;-57
2022/06/04 01:16:21;;;;;;;2.20;2.10;;;;;;;;;;4939350;28;21131;-57
2022/06/04 01:19:50;;;;;;;2.40;2.30;;;;;;;;;;4947857;29;20233;-57
2022/06/04 01:23:18;;;;;;;2.50;2.40;;;;;;;;;;4943909;28;20211;-57
2022/06/04 01:26:26;;;;;;;2.17;2.07;;;;;;;;;;4940721;29;20606;-57
2022/06/04 01:29:17;;;;;;;2.53;2.43;;;;;;;;;;4939546;29;20383;-57
2022/06/04 01:32:09;;;;;;;2.33;2.17;;;;;;;;;;4939238;28;20602;-57
2022/06/04 01:35:08;;;;;;;2.00;1.90;;;;;;;;;;4934174;29;20212;-57
2022/06/04 01:37:59;;;;;;;2.23;2.10;;;;;;;;;;4944543;28;20584;-57
2022/06/04 01:41:04;;;;;;;2.23;2.13;;;;;;;;;;4947808;28;20226;-57
2022/06/04 01:43:57;;;;;;;2.07;1.97;;;;;;;;;;4942679;29;20363;-57
2022/06/04 01:46:46;;;;;;;2.07;1.97;;;;;;;;;;4940063;28;20213;-57
2022/06/04 01:49:39;;;;;;;2.37;2.27;;;;;;;;;;4938777;28;20213;-58
2022/06/04 01:52:31;;;;;;;2.17;2.07;;;;;;;;;;4940297;28;20220;-57
2022/06/04 01:55:22;;;;;;;2.00;1.90;;;;;;;;;;4942086;29;20597;-57
2022/06/04 01:58:15;;;;;;;2.40;2.20;;;;;;;;;;4944516;28;20214;-57
2022/06/04 02:01:07;;;;;;;2.20;2.10;;;;;;;;;;4936222;28;20647;-57
2022/06/04 02:04:00;;;;;;;2.20;2.10;;;;;;;;;;4946909;28;20213;-57
2022/06/04 02:07:29;;;;;;;2.07;1.97;;;;;;;;;;4944492;28;20218;-57
2022/06/04 02:10:02;;;;;;;2.23;2.13;;;;;;;;;;4941880;28;20568;-57
2022/06/04 02:12:52;;;;;;;2.20;2.10;;;;;;;;;;4934924;28;20265;-58
2022/06/04 02:15:47;;;;;;;2.20;2.10;;;;;;;;;;4944194;28;20213;-57
2022/06/04 02:18:35;;;;;;;2.10;2.00;;;;;;;;;;4938489;28;20668;-57
2022/06/04 02:21:23;;;;;;;2.33;2.23;;;;;;;;;;4938344;28;20214;-58
2022/06/04 02:24:11;;;;;;;2.37;2.27;;;;;;;;;;4941129;29;20213;-57
2022/06/04 02:26:58;;;;;;;2.23;2.13;;;;;;;;;;4942075;28;20217;-58
2022/06/04 02:29:45;;;;;;;2.30;2.10;;;;;;;;;;4945111;28;20225;-57
2022/06/04 02:32:42;;;;;;;2.47;2.37;;;;;;;;;;4940874;28;20224;-57
2022/06/04 02:35:35;;;;;;;2.20;2.10;;;;;;;;;;4945888;28;20216;-57
2022/06/04 02:38:27;;;;;;;2.10;2.00;;;;;;;;;;4943887;29;20705;-57
2022/06/04 02:41:19;;;;;;;2.30;2.20;;;;;;;;;;4941696;29;20220;-57
2022/06/04 02:44:10;;;;;;;2.20;2.10;;;;;;;;;;4942272;28;20235;-57
2022/06/04 02:47:04;;;;;;;2.40;2.30;;;;;;;;;;4945469;28;20216;-58
2022/06/04 02:49:55;;;;;;;2.27;2.17;;;;;;;;;;4944365;28;20706;-57
2022/06/04 02:52:46;;;;;;;2.53;2.40;;;;;;;;;;4946389;28;20203;-57
2022/06/04 02:55:37;;;;;;;2.23;2.13;;;;;;;;;;4947216;29;20570;-57
2022/06/04 02:58:26;;;;;;;1.80;1.80;;;;;;;;;;4943945;28;20218;-57
2022/06/04 03:01:14;;;;;;;2.20;2.10;;;;;;;;;;4951521;28;20252;-57
2022/06/04 03:04:02;;;;;;;2.07;1.97;;;;;;;;;;4946084;28;20207;-57
2022/06/04 03:06:49;;;;;;;2.30;2.20;;;;;;;;;;4939247;29;20210;-58
2022/06/04 03:09:38;;;;;;;2.10;2.00;;;;;;;;;;4948113;28;20339;-58
2022/06/04 03:12:25;;;;;;;2.10;2.00;;;;;;;;;;4942009;29;20260;-57
2022/06/04 03:15:13;;;;;;;2.00;1.90;;;;;;;;;;4946495;28;20218;-57
2022/06/04 03:18:00;;;;;;;2.10;2.00;;;;;;;;;;4941560;28;20206;-57
2022/06/04 03:20:47;;;;;;;1.83;1.80;;;;;;;;;;4948356;28;20557;-57
2022/06/04 03:23:34;;;;;;;1.90;1.80;;;;;;;;;;4942192;29;20229;-57
2022/06/04 03:26:23;;;;;;;2.20;2.10;;;;;;;;;;4944407;28;20221;-57
2022/06/04 03:29:10;;;;;;;2.33;2.23;;;;;;;;;;4946145;29;20242;-57
2022/06/04 03:31:58;;;;;;;1.70;1.70;;;;;;;;;;4948140;29;20241;-57
2022/06/04 03:34:45;;;;;;;2.20;2.10;;;;;;;;;;4943291;28;20279;-57
2022/06/04 03:37:32;;;;;;;2.30;2.20;;;;;;;;;;4945909;28;20211;-57
2022/06/04 03:40:20;;;;;;;2.20;2.10;;;;;;;;;;4945466;28;20226;-57
2022/06/04 03:43:08;;;;;;;2.00;1.90;;;;;;;;;;4947295;28;20959;-57
2022/06/04 03:45:55;;;;;;;2.00;1.90;;;;;;;;;;4943860;28;20225;-57
2022/06/04 03:48:43;;;;;;;2.03;1.93;;;;;;;;;;4946799;29;20219;-57
2022/06/04 03:51:30;;;;;;;1.83;1.77;;;;;;;;;;4950753;28;20233;-57
2022/06/04 03:54:17;;;;;;;2.10;2.00;;;;;;;;;;4945464;28;20216;-57
2022/06/04 04:00:13;;;;;;;2.10;2.00;;;;;;;;;;4945484;28;20211;-58
2022/06/04 04:03:02;;;;;;;2.20;2.10;;;;;;;;;;4951454;28;20217;-58
2022/06/04 04:05:51;;;;;;;2.20;2.10;;;;;;;;;;4941694;29;20214;-59
2022/06/04 04:08:38;;;;;;;1.90;1.80;;;;;;;;;;4942136;29;20597;-57
2022/06/04 04:11:28;;;;;;;2.23;2.13;;;;;;;;;;4941734;29;20617;-57
2022/06/04 04:14:15;;;;;;;1.90;1.80;;;;;;;;;;4942431;29;20218;-57
2022/06/04 04:17:04;;;;;;;1.83;1.73;;;;;;;;;;4939844;28;20216;-57
2022/06/04 04:19:51;;;;;;;1.80;1.80;;;;;;;;;;4941963;28;20288;-58
2022/06/04 04:22:39;;;;;;;2.30;2.20;;;;;;;;;;4943720;29;20203;-56
2022/06/04 04:25:28;;;;;;;1.93;1.83;;;;;;;;;;4940633;28;20792;-58
2022/06/04 04:28:15;;;;;;;2.10;2.00;;;;;;;;;;4943654;28;20913;-57
2022/06/04 04:31:10;;;;;;;2.20;2.10;;;;;;;;;;4943189;28;20221;-57
2022/06/04 04:33:58;;;;;;;1.80;1.80;;;;;;;;;;4948097;28;20208;-58
2022/06/04 04:36:46;;;;;;;1.90;1.80;;;;;;;;;;4937101;29;20215;-57
2022/06/04 04:39:33;;;;;;;1.70;1.70;;;;;;;;;;4945416;28;20204;-57
2022/06/04 04:42:20;;;;;;;2.00;1.90;;;;;;;;;;4942386;28;20202;-58
2022/06/04 04:45:08;;;;;;;2.30;1.97;;;;;;;;;;4937914;29;20210;-57
2022/06/04 04:47:56;;;;;;;2.23;2.13;;;;;;;;;;4942705;29;20215;-57
2022/06/04 04:50:48;;;;;;;2.03;1.93;;;;;;;;;;4942416;28;20200;-57
2022/06/04 04:53:35;;;;;;;2.30;2.20;;;;;;;;;;4943939;28;20273;-57
2022/06/04 04:56:24;;;;;;;1.93;1.83;;;;;;;;;;4945079;28;20215;-57
2022/06/04 04:59:12;;;;;;;2.00;1.90;;;;;;;;;;4940949;28;20207;-57
2022/06/04 05:01:59;;;;;;;2.17;2.07;;;;;;;;;;4937688;29;20231;-57
2022/06/04 05:04:47;;;;;;;2.10;2.00;;;;;;;;;;4945964;28;20218;-58
2022/06/04 05:07:35;;;;;;;1.93;1.87;;;;;;;;;;4944704;28;20216;-57
2022/06/04 05:10:22;;;;;;;2.10;2.00;;;;;;;;;;4939087;28;20395;-57
2022/06/04 05:13:09;;;;;;;2.33;2.23;;;;;;;;;;4941886;28;20243;-57
2022/06/04 05:15:56;;;;;;;1.93;1.83;;;;;;;;;;4940431;28;20211;-57
2022/06/04 05:18:44;;;;;;;2.20;2.10;;;;;;;;;;4944772;29;20221;-57
2022/06/04 05:21:39;;;;;;;2.00;1.90;;;;;;;;;;4940283;29;20207;-57
2022/06/04 05:24:30;;;;;;;2.17;2.07;;;;;;;;;;4939523;29;20216;-57
2022/06/04 05:27:17;;;;;;;2.00;1.90;;;;;;;;;;4940777;28;20215;-57
2022/06/04 05:30:05;;;;;;;2.00;1.97;;;;;;;;;;4940195;28;20219;-57
2022/06/04 05:32:52;;;;;;;2.13;2.03;;;;;;;;;;4946231;28;20238;-57
2022/06/04 05:35:39;;;;;;;2.00;1.90;;;;;;;;;;4946414;28;20208;-57
2022/06/04 05:38:26;;;;;;;2.07;1.97;;;;;;;;;;4947918;28;20225;-57
2022/06/04 05:41:15;;;;;;;2.13;2.03;;;;;;;;;;4941773;29;20212;-57
2022/06/04 05:44:02;;;;;;;2.20;2.10;;;;;;;;;;4941377;28;20200;-57
2022/06/04 05:46:49;;;;;;;1.97;1.87;;;;;;;;;;4941220;28;20223;-57
2022/06/04 05:49:37;;;;;;;2.13;2.03;;;;;;;;;;4942093;29;20208;-57
2022/06/04 05:52:24;;;;;;;2.17;2.07;;;;;;;;;;4943138;28;20222;-56
2022/06/04 05:55:12;;;;;;;2.50;2.40;;;;;;;;;;4951013;28;20215;-57
2022/06/04 05:58:00;;;;;;;2.30;2.20;;;;;;;;;;4948158;29;20219;-57
2022/06/04 06:00:47;;;;;;;2.60;2.40;;;;;;;;;;4941746;29;20231;-57
2022/06/04 06:03:34;;;;;;;2.10;2.00;;;;;;;;;;4941303;28;20215;-58
2022/06/04 06:06:24;;;;;;;2.30;2.20;;;;;;;;;;4942506;29;20216;-57
2022/06/04 06:09:13;;;;;;;2.70;2.50;;;;;;;;;;4936988;28;20623;-57
2022/06/04 06:12:01;;;;;;;2.20;2.10;;;;;;;;;;4939827;29;20715;-57
2022/06/04 06:14:50;;;;;;;2.13;2.03;;;;;;;;;;4945695;28;20214;-57
2022/06/04 06:17:39;;;;;;;2.37;2.27;;;;;;;;;;4941596;28;20200;-57
2022/06/04 06:20:26;;;;;;;2.20;2.10;;;;;;;;;;4944635;28;20212;-58
2022/06/04 06:23:13;;;;;;;2.33;2.23;;;;;;;;;;4948632;29;20665;-57
2022/06/04 06:26:05;;;;;;;2.30;2.20;;;;;;;;;;4947220;29;20204;-57
2022/06/04 06:28:53;;;;;;;2.30;2.20;;;;;;;;;;4950242;28;20287;-57
2022/06/04 06:31:42;;;;;;;2.10;2.00;;;;;;;;;;4949782;28;20232;-58
2022/06/04 06:34:29;;;;;;;2.10;2.00;;;;;;;;;;4944331;28;20212;-57
2022/06/04 06:37:16;;;;;;;2.77;2.57;;;;;;;;;;4948722;28;20445;-56
2022/06/04 06:40:05;;;;;;;2.40;2.20;;;;;;;;;;4945791;28;20220;-57
2022/06/04 06:42:52;;;;;;;2.30;2.20;;;;;;;;;;4947826;28;20205;-57
2022/06/04 06:45:41;;;;;;;2.60;2.40;;;;;;;;;;4950867;29;20661;-58
2022/06/04 06:48:29;;;;;;;2.20;2.10;;;;;;;;;;4950560;28;20297;-57
2022/06/04 06:51:20;;;;;;;2.20;2.10;;;;;;;;;;4943438;29;20220;-57
2022/06/04 06:54:08;;;;;;;2.40;2.30;;;;;;;;;;4952820;28;20237;-57
2022/06/04 06:56:56;;;;;;;2.50;2.40;;;;;;;;;;4945457;28;20266;-57
2022/06/04 06:59:46;;;;;;;2.47;2.37;;;;;;;;;;4942517;28;20702;-57
2022/06/04 07:02:33;;;;;;;2.40;2.20;;;;;;;;;;4947769;28;20667;-57
2022/06/04 07:05:21;;;;;;;2.23;2.13;;;;;;;;;;4944019;29;20208;-58
2022/06/04 07:08:09;;;;;;;2.30;2.20;;;;;;;;;;4947419;28;20225;-57
2022/06/04 07:10:56;;;;;;;2.30;2.20;;;;;;;;;;4945028;28;20217;-57
2022/06/04 07:13:43;;;;;;;2.03;1.97;;;;;;;;;;4948202;28;20288;-57
2022/06/04 07:16:30;;;;;;;2.27;2.17;;;;;;;;;;4948281;29;20679;-56
2022/06/04 07:19:19;;;;;;;1.90;1.90;;;;;;;;;;4944694;28;20294;-57
2022/06/04 07:22:07;;;;;;;2.37;2.27;;;;;;;;;;4943630;29;20210;-56
2022/06/04 07:24:55;;;;;;;2.20;2.10;;;;;;;;;;4941482;29;20203;-57
2022/06/04 07:27:42;;;;;;;2.03;1.93;;;;;;;;;;4939228;29;20669;-57
2022/06/04 07:30:29;;;;;;;2.17;2.07;;;;;;;;;;4945283;28;20221;-57
2022/06/04 07:33:16;;;;;;;2.37;2.27;;;;;;;;;;4944038;28;20224;-57
2022/06/04 07:36:04;;;;;;;2.70;2.50;;;;;;;;;;4943003;28;20220;-57
2022/06/04 07:38:53;;;;;;;1.90;1.80;;;;;;;;;;4940562;28;20227;-59
2022/06/04 07:41:44;;;;;;;2.20;2.10;;;;;;;;;;4948423;29;20665;-60
2022/06/04 07:44:31;;;;;;;2.27;2.17;;;;;;;;;;4947272;28;20228;-58
2022/06/04 07:47:18;;;;;;;2.13;2.03;;;;;;;;;;4944469;28;20286;-57
2022/06/04 07:50:06;;;;;;;2.33;2.23;;;;;;;;;;4940453;28;20209;-57
2022/06/04 07:52:53;;;;;;;2.20;2.10;;;;;;;;;;4938495;28;20609;-57
2022/06/04 07:55:43;;;;;;;2.40;2.30;;;;;;;;;;4945667;28;20218;-57
2022/06/04 07:58:30;;;;;;;2.30;2.20;;;;;;;;;;4943884;28;20209;-57
2022/06/04 08:01:20;;;;;;;2.37;2.27;;;;;;;;;;4941289;28;20224;-58
2022/06/04 08:04:08;;;;;;;2.10;2.00;;;;;;;;;;4938199;28;20200;-56
2022/06/04 08:06:55;;;;;;;2.10;2.00;;;;;;;;;;4946539;29;20715;-57
2022/06/04 08:09:42;;;;;;;2.30;2.20;;;;;;;;;;4947401;28;20220;-56
2022/06/04 08:12:32;;;;;;;2.30;2.20;;;;;;;;;;4941058;29;20328;-57
2022/06/04 08:15:19;;;;;;;2.63;2.40;;;;;;;;;;4938479;28;20210;-57
2022/06/04 08:18:06;;;;;;;2.40;2.30;;;;;;;;;;4940028;28;20673;-57
2022/06/04 08:20:54;;;;;;;2.30;2.10;;;;;;;;;;4941328;29;20216;-57
2022/06/04 08:23:42;;;;;;;2.33;2.22;;;;;;;;;;4945556;29;20205;-58
2022/06/04 08:26:29;;;;;;;2.00;1.90;;;;;;;;;;4948478;28;20211;-57
2022/06/04 08:29:18;;;;;;;1.98;1.88;;;;;;;;;;4945047;28;20673;-58
2022/06/04 08:32:06;;;;;;;2.40;2.20;;;;;;;;;;4940393;28;20252;-58
2022/06/04 08:34:54;;;;;;;2.50;2.40;;;;;;;;;;4946488;29;20580;-57
2022/06/04 08:37:41;;;;;;;1.90;1.80;;;;;;;;;;4944755;28;20720;-57
2022/06/04 08:40:32;;;;;;;2.20;2.10;;;;;;;;;;4946796;29;20661;-58
2022/06/04 08:43:38;;;;;;;2.22;2.13;;;;;;;;;;4944452;28;20211;-58
2022/06/04 08:46:32;;;;;;;1.90;1.80;;;;;;;;;;4942064;28;20215;-57
2022/06/04 08:49:24;;;;;;;2.10;2.00;;;;;;;;;;4945702;28;20256;-57
2022/06/04 08:52:14;;;;;;;1.73;1.73;;;;;;;;;;4939387;28;20212;-58
2022/06/04 08:58:32;;;;;;;2.10;2.00;;;;;;;;;;4939265;28;20211;-57
2022/06/04 09:01:24;;;;;;;2.13;2.03;;;;;;;;;;4940651;29;20719;-58
2022/06/04 09:04:28;;;;;;;1.75;1.65;;;;;;;;;;4944206;28;20206;-58
2022/06/04 09:07:17;;;;;;;2.00;1.90;;;;;;;;;;4941681;29;20209;-57
2022/06/04 09:10:12;;;;;;;1.97;1.97;;;;;;;;;;4945806;29;20220;-58
2022/06/04 09:13:03;;;;;;;2.23;2.13;;;;;;;;;;4942565;29;20247;-57
2022/06/04 09:15:53;;;;;;;2.20;2.10;;;;;;;;;;4944196;28;20213;-57
2022/06/04 09:18:41;;;;;;;2.30;2.20;;;;;;;;;;4940590;29;20207;-57
2022/06/04 09:21:36;;;;;;;2.20;2.10;;;;;;;;;;4941817;28;20593;-57
2022/06/04 09:24:25;;;;;;;1.92;1.83;;;;;;;;;;4940040;29;20210;-57
2022/06/04 09:27:26;;;;;;;2.30;2.10;;;;;;;;;;4939542;29;20257;-58
2022/06/04 09:30:22;;;;;;;2.13;2.03;;;;;;;;;;4942352;28;20205;-57
2022/06/04 09:33:39;;;;;;;2.03;1.92;;;;;;;;;;4939552;28;20233;-58
2022/06/04 09:36:31;;;;;;;1.88;1.80;;;;;;;;;;4943212;28;20745;-57
2022/06/04 09:39:25;;;;;;;2.10;2.00;;;;;;;;;;4939803;29;20210;-57
2022/06/04 09:42:23;;;;;;;2.20;2.10;;;;;;;;;;4941499;28;20208;-57
2022/06/04 09:45:20;;;;;;;2.30;2.20;;;;;;;;;;4936957;29;20699;-58
2022/06/04 09:48:19;;;;;;;2.07;1.97;;;;;;;;;;4942947;28;20222;-57
2022/06/04 09:51:17;;;;;;;2.27;2.17;;;;;;;;;;4942723;29;20581;-57
2022/06/04 09:54:19;;;;;;;1.90;1.80;;;;;;;;;;4941607;29;20225;-57
2022/06/04 09:57:08;;;;;;;2.50;2.30;;;;;;;;;;4947271;29;20213;-58
2022/06/04 09:59:56;;;;;;;2.20;2.10;;;;;;;;;;4944349;29;20253;-58
2022/06/04 10:02:53;;;;;;;1.80;1.77;;;;;;;;;;4949373;28;20241;-57
2022/06/04 10:05:49;;;;;;;2.10;2.00;;;;;;;;;;4951269;28;20233;-57
2022/06/04 10:11:51;;;;;;;2.00;1.90;;;;;;;;;;4928882;29;20233;-58
2022/06/04 10:14:40;;;;;;;1.90;1.80;;;;;;;;;;4944974;28;20240;-58
2022/06/04 10:17:37;;;;;;;2.10;2.00;;;;;;;;;;4942429;29;20691;-57
2022/06/04 10:20:26;;;;;;;2.50;2.30;;;;;;;;;;4947647;28;20236;-58
2022/06/04 10:23:15;;;;;;;2.27;2.17;;;;;;;;;;4947933;28;20218;-58
2022/06/04 10:26:21;;;;;;;2.13;2.03;;;;;;;;;;4949931;28;20217;-58
2022/06/04 10:29:59;;;;;;;2.20;2.10;;;;;;;;;;4946624;29;20240;-57
2022/06/04 10:32:59;;;;;;;2.17;2.07;;;;;;;;;;4919682;28;20231;-57
2022/06/04 10:36:01;;;;;;;2.10;2.00;;;;;;;;;;4945067;28;20215;-57
2022/06/04 10:38:58;;;;;;;2.07;1.97;;;;;;;;;;4939673;28;20218;-57
2022/06/04 10:41:52;;;;;;;2.13;2.03;;;;;;;;;;4939368;28;20214;-58
2022/06/04 10:45:07;;;;;;;2.03;1.97;;;;;;;;;;4939509;29;20624;-57
2022/06/04 10:48:02;;;;;;;1.80;1.70;;;;;;;;;;4938277;28;20212;-57
2022/06/04 10:54:05;;;;;;;2.03;1.93;;;;;;;;;;4947033;29;20568;-57
2022/06/04 10:56:57;;;;;;;1.77;1.77;;;;;;;;;;4941872;29;20222;-58
2022/06/04 10:59:52;;;;;;;1.83;1.83;;;;;;;;;;4940656;28;20862;-57
2022/06/04 11:02:44;;;;;;;1.60;1.60;;;;;;;;;;4948231;28;20232;-58
2022/06/04 11:05:40;;;;;;;2.10;2.00;;;;;;;;;;4944985;28;20724;-58
2022/06/04 11:08:32;;;;;;;2.17;2.03;;;;;;;;;;4941756;28;20222;-57
2022/06/04 11:11:24;;;;;;;2.00;1.90;;;;;;;;;;4942709;28;20214;-57
2022/06/04 11:14:14;;;;;;;2.20;2.07;;;;;;;;;;4946266;29;20243;-57
2022/06/04 11:17:08;;;;;;;2.20;2.10;;;;;;;;;;4942387;28;20197;-58
2022/06/04 11:20:03;;;;;;;2.20;2.10;;;;;;;;;;4946630;29;20206;-62
2022/06/04 11:22:58;;;;;;;1.70;1.70;;;;;;;;;;4942009;28;20625;-58
2022/06/04 11:25:50;;;;;;;1.80;1.70;;;;;;;;;;4945158;28;20220;-57
2022/06/04 11:28:38;;;;;;;1.87;1.80;;;;;;;;;;4944707;28;20215;-57
2022/06/04 11:31:39;;;;;;;1.80;1.70;;;;;;;;;;4944580;28;20218;-57
2022/06/04 11:35:01;;;;;;;2.00;1.90;;;;;;;;;;4948305;28;20573;-58
2022/06/04 11:38:24;;;;;;;1.87;1.77;;;;;;;;;;4946280;29;20332;-56
2022/06/04 11:41:22;;;;;;;1.90;1.80;;;;;;;;;;4943950;29;20256;-58
2022/06/04 11:44:29;;;;;;;2.07;1.97;;;;;;;;;;4943267;29;20301;-59
2022/06/04 11:47:29;;;;;;;2.10;2.00;;;;;;;;;;4940818;29;20206;-57
2022/06/04 11:50:25;;;;;;;1.90;1.90;;;;;;;;;;4941514;29;20220;-58
2022/06/04 11:53:24;;;;;;;2.00;1.90;;;;;;;;;;4947158;28;20255;-57
2022/06/04 11:56:22;;;;;;;1.77;1.67;;;;;;;;;;4944704;28;20214;-57
2022/06/04 11:59:31;;;;;;;2.10;2.00;;;;;;;;;;4947122;29;20224;-57
2022/06/04 12:02:25;;;;;;;1.43;1.43;;;;;;;;;;4944591;28;20592;-57
2022/06/04 12:05:25;;;;;;;1.73;1.63;;;;;;;;;;4944055;28;20585;-57
2022/06/04 12:08:15;;;;;;;1.90;1.80;;;;;;;;;;4946988;28;20223;-57
2022/06/04 12:11:13;;;;;;;1.83;1.80;;;;;;;;;;4939792;28;20223;-58
2022/06/04 12:14:11;;;;;;;1.50;1.50;;;;;;;;;;4944583;29;20228;-58
2022/06/04 12:17:12;;;;;;;1.90;1.80;;;;;;;;;;4943451;29;20633;-58
2022/06/04 12:26:47;;;;;;;1.60;1.60;;;;;;;;;;4943722;28;20204;-58
2022/06/04 12:29:38;;;;;;;1.80;1.80;;;;;;;;;;4943047;28;20205;-57
2022/06/04 12:32:29;;;;;;;1.90;1.80;;;;;;;;;;4943736;28;20213;-58
2022/06/04 12:35:22;;;;;;;1.67;1.67;;;;;;;;;;4948003;28;20284;-57
2022/06/04 12:38:14;;;;;;;1.63;1.53;;;;;;;;;;4943505;28;20217;-57
2022/06/04 12:41:07;;;;;;;1.50;1.40;;;;;;;;;;4936579;29;20200;-57
2022/06/04 12:44:01;;;;;;;1.53;1.53;;;;;;;;;;4938776;28;20241;-57
2022/06/04 12:46:48;;;;;;;1.80;1.70;;;;;;;;;;4941914;28;20211;-58
2022/06/04 12:49:43;;;;;;;1.40;1.40;;;;;;;;;;4943997;28;20205;-57
2022/06/04 12:52:39;;;;;;;1.60;1.60;;;;;;;;;;4940535;28;20226;-57
2022/06/04 12:55:31;;;;;;;1.50;1.50;;;;;;;;;;4942635;28;20210;-57
2022/06/04 12:58:30;;;;;;;1.60;1.60;;;;;;;;;;4943120;28;20216;-57
2022/06/04 13:01:34;;;;;;;1.60;1.60;;;;;;;;;;4944075;28;20224;-57
2022/06/04 13:04:25;;;;;;;1.63;1.63;;;;;;;;;;4940614;28;20567;-57
2022/06/04 13:07:22;;;;;;;1.83;1.80;;;;;;;;;;4940024;28;20701;-56
2022/06/04 13:10:19;;;;;;;1.60;1.50;;;;;;;;;;4942508;28;20218;-58
2022/06/04 13:13:19;;;;;;;1.53;1.53;;;;;;;;;;4938590;29;20281;-57
2022/06/04 13:16:18;;;;;;;1.80;1.70;;;;;;;;;;4942574;28;20208;-57
2022/06/04 13:19:26;;;;;;;1.83;1.73;;;;;;;;;;4945754;28;20221;-57
2022/06/04 13:22:21;;;;;;;1.47;1.47;;;;;;;;;;4941433;29;20601;-57
2022/06/04 13:25:15;;;;;;;1.60;1.60;;;;;;;;;;4941334;28;20211;-57
2022/06/04 13:28:03;;;;;;;1.57;1.57;;;;;;;;;;4941131;29;20204;-57
2022/06/04 13:30:52;;;;;;;1.50;1.50;;;;;;;;;;4941328;29;20215;-57
2022/06/04 13:33:39;;;;;;;1.63;1.60;;;;;;;;;;4937340;28;20234;-57
2022/06/04 13:36:29;;;;;;;1.37;1.37;;;;;;;;;;4941742;29;20217;-57
2022/06/04 13:39:19;;;;;;;1.53;1.53;;;;;;;;;;4944746;29;20214;-57
2022/06/04 13:42:14;;;;;;;1.60;1.60;;;;;;;;;;4937667;28;20593;-57
2022/06/04 13:45:19;;;;;;;1.80;1.70;;;;;;;;;;4943058;29;20208;-57
2022/06/04 13:48:20;;;;;;;1.40;1.40;;;;;;;;;;4940017;28;20282;-57
2022/06/04 13:51:18;;;;;;;1.73;1.70;;;;;;;;;;4943665;28;20213;-57
2022/06/04 13:54:07;;;;;;;1.70;1.70;;;;;;;;;;4941844;29;20235;-57
2022/06/04 13:56:56;;;;;;;1.37;1.37;;;;;;;;;;4943755;29;20225;-57
2022/06/04 13:59:45;;;;;;;1.40;1.37;;;;;;;;;;4938368;28;20573;-57
2022/06/04 14:02:32;;;;;;;1.50;1.50;;;;;;;;;;4941155;28;20536;-57
2022/06/04 14:08:30;;;;;;;1.53;1.50;;;;;;;;;;4935058;29;20219;-57
2022/06/04 14:11:30;;;;;;;1.60;1.50;;;;;;;;;;4943914;29;20219;-57
2022/06/04 14:14:35;;;;;;;1.80;1.70;;;;;;;;;;4945791;29;20229;-57
2022/06/04 14:17:40;;;;;;;1.77;1.70;;;;;;;;;;4945953;28;20219;-59
2022/06/04 14:20:35;;;;;;;1.70;1.60;;;;;;;;;;4937316;29;20567;-57
2022/06/04 14:23:36;;;;;;;1.67;1.67;;;;;;;;;;4943000;28;20214;-57
2022/06/04 14:26:32;;;;;;;1.93;1.83;;;;;;;;;;4945522;28;20210;-57
2022/06/04 14:29:35;;;;;;;1.90;1.80;;;;;;;;;;4942269;28;20278;-57
2022/06/04 14:32:36;;;;;;;1.77;1.70;;;;;;;;;;4940884;28;20425;-57
2022/06/04 14:35:30;;;;;;;1.50;1.50;;;;;;;;;;4939845;29;20256;-57
2022/06/04 14:38:19;;;;;;;1.60;1.60;;;;;;;;;;4937810;29;20659;-56
2022/06/04 14:41:14;;;;;;;1.70;1.63;;;;;;;;;;4937175;29;20244;-57
2022/06/04 14:44:25;;;;;;;1.73;1.63;;;;;;;;;;4944597;28;20274;-57
2022/06/04 14:47:54;;;;;;;1.80;1.80;;;;;;;;;;4947286;29;20212;-57
2022/06/04 14:50:53;;;;;;;1.50;1.50;;;;;;;;;;4920944;28;20212;-57
2022/06/04 14:53:41;;;;;;;1.63;1.60;;;;;;;;;;4944029;28;20274;-57
2022/06/04 14:56:58;;;;;;;1.63;1.63;;;;;;;;;;4948220;29;20787;-58
2022/06/04 15:00:08;;;;;;;1.80;1.70;;;;;;;;;;4942372;29;20228;-57
2022/06/04 15:03:12;;;;;;;1.73;1.73;;;;;;;;;;4946945;28;20762;-57
2022/06/04 15:06:01;;;;;;;1.67;1.67;;;;;;;;;;4941852;28;20217;-57
2022/06/04 15:09:10;;;;;;;1.53;1.53;;;;;;;;;;4947238;29;20295;-56
2022/06/04 15:12:25;;;;;;;1.70;1.70;;;;;;;;;;4942172;28;20276;-57
2022/06/04 15:15:24;;;;;;;1.63;1.63;;;;;;;;;;4942135;29;20784;-57
2022/06/04 15:18:36;;;;;;;1.77;1.77;;;;;;;;;;4948262;28;20214;-57
2022/06/04 15:21:32;;;;;;;1.90;1.80;;;;;;;;;;4946103;29;20244;-57
2022/06/04 15:24:31;;;;;;;1.70;1.70;;;;;;;;;;4943478;28;20232;-57
2022/06/04 15:27:30;;;;;;;1.70;1.70;;;;;;;;;;4945361;29;20220;-57
2022/06/04 15:33:55;;;;;;;2.00;1.90;;;;;;;;;;4941884;28;20291;-57
2022/06/04 15:36:47;;;;;;;1.93;1.83;;;;;;;;;;4949939;28;20596;-57
2022/06/04 15:39:39;;;;;;;2.00;1.90;;;;;;;;;;4940623;28;20221;-58
2022/06/04 15:42:43;;;;;;;1.90;1.80;;;;;;;;;;4947560;28;20212;-58
2022/06/04 15:45:34;;;;;;;1.60;1.50;;;;;;;;;;4950321;28;20581;-57
2022/06/04 15:48:28;;;;;;;1.67;1.67;;;;;;;;;;4946739;29;20216;-58
2022/06/04 15:57:45;;;;;;;2.00;1.90;;;;;;;;;;4941919;29;20205;-58
2022/06/04 16:00:38;;;;;;;2.07;1.97;;;;;;;;;;4941806;29;20577;-57
2022/06/04 16:03:33;;;;;;;1.90;1.80;;;;;;;;;;4938105;29;20211;-58
2022/06/04 16:06:23;;;;;;;1.73;1.73;;;;;;;;;;4939338;29;20216;-58
2022/06/04 16:09:24;;;;;;;2.20;2.10;;;;;;;;;;4943826;28;20225;-57
2022/06/04 16:12:16;;;;;;;1.80;1.77;;;;;;;;;;4939760;28;20251;-57
2022/06/04 16:15:14;;;;;;;2.10;2.00;;;;;;;;;;4948204;28;20279;-57
2022/06/04 16:18:13;;;;;;;1.87;1.80;;;;;;;;;;4941076;28;20212;-58
2022/06/04 16:21:05;;;;;;;1.90;1.90;;;;;;;;;;4944717;28;20672;-58
2022/06/04 16:23:58;;;;;;;1.73;1.73;;;;;;;;;;4946400;28;20210;-58
2022/06/04 16:26:50;;;;;;;2.20;2.10;;;;;;;;;;4942409;29;20212;-58
2022/06/04 16:29:38;;;;;;;1.93;1.83;;;;;;;;;;4942065;29;20235;-58
2022/06/04 16:32:25;;;;;;;2.13;2.00;;;;;;;;;;4947923;28;20215;-58
2022/06/04 16:35:14;;;;;;;2.23;2.13;;;;;;;;;;4946654;28;20227;-57
2022/06/04 16:44:42;;;;;;;1.93;1.90;;;;;;;;;;4942871;28;20251;-57
2022/06/04 16:47:39;;;;;;;2.17;2.07;;;;;;;;;;4941423;28;20698;-58
2022/06/04 16:50:29;;;;;;;2.00;1.90;;;;;;;;;;4944762;28;20208;-57
2022/06/04 16:53:18;;;;;;;2.03;1.93;;;;;;;;;;4941931;29;20217;-58
2022/06/04 16:56:08;;;;;;;2.10;2.00;;;;;;;;;;4944676;28;20234;-57
2022/06/04 16:58:57;;;;;;;1.87;1.77;;;;;;;;;;4939848;29;20839;-58
2022/06/04 17:01:51;;;;;;;2.00;1.90;;;;;;;;;;4940960;29;20857;-58
2022/06/04 17:04:44;;;;;;;2.03;1.93;;;;;;;;;;4937852;28;20264;-57
2022/06/04 17:07:42;;;;;;;1.90;1.80;;;;;;;;;;4943923;28;20208;-58
2022/06/04 17:10:42;;;;;;;2.17;2.07;;;;;;;;;;4945582;28;20620;-57
2022/06/04 17:13:41;;;;;;;1.70;1.70;;;;;;;;;;4941845;29;20250;-58
2022/06/04 17:16:34;;;;;;;1.63;1.63;;;;;;;;;;4940045;28;20230;-57
2022/06/04 17:19:36;;;;;;;2.00;1.90;;;;;;;;;;4947199;28;20209;-58
2022/06/04 17:22:33;;;;;;;2.20;2.10;;;;;;;;;;4939894;29;20206;-57
2022/06/04 17:25:47;;;;;;;1.83;1.80;;;;;;;;;;4944823;29;20208;-58
2022/06/04 17:29:01;;;;;;;1.60;1.60;;;;;;;;;;4944784;29;20206;-57
2022/06/04 17:32:04;;;;;;;1.70;1.70;;;;;;;;;;4939246;29;20220;-57
2022/06/04 17:35:10;;;;;;;1.77;1.77;;;;;;;;;;4944550;28;20881;-57
2022/06/04 17:38:20;;;;;;;2.10;2.00;;;;;;;;;;4941651;28;20222;-58
2022/06/04 17:41:12;;;;;;;1.80;1.80;;;;;;;;;;4946532;28;20226;-58
2022/06/04 17:43:59;;;;;;;1.80;1.80;;;;;;;;;;4939964;28;20206;-57
2022/06/04 17:46:47;;;;;;;1.70;1.70;;;;;;;;;;4944573;28;20210;-58
2022/06/04 17:49:34;;;;;;;2.10;2.00;;;;;;;;;;4941307;29;20658;-58
2022/06/04 17:52:21;;;;;;;1.63;1.63;;;;;;;;;;4942228;29;20207;-57
2022/06/04 17:55:09;;;;;;;1.90;1.80;;;;;;;;;;4947331;29;20230;-57
2022/06/04 17:57:57;;;;;;;1.73;1.70;;;;;;;;;;4947931;28;20215;-58
2022/06/04 18:00:45;;;;;;;1.57;1.57;;;;;;;;;;4942179;28;20238;-57
2022/06/04 18:03:33;;;;;;;1.60;1.50;;;;;;;;;;4941908;28;20210;-57